sensor_id;sensor_type;location;lat;lon;timestamp;pressure;altitude;pressure_sealevel;temperature;humidity
33697;BME280;20031;43.416;23.232;2023-05-03T00:00:51;100215.50;;;14.78;59.39
33697;BME280;20031;43.416;23.232;2023-05-03T00:03:16;100217.94;;;14.80;59.42
33697;BME280;20031;43.416;23.232;2023-05-03T00:05:46;100218.41;;;14.83;59.24
33697;BME280;20031;43.416;23.232;2023-05-03T00:08:12;100219.19;;;14.84;59.29
33697;BME280;20031;43.416;23.232;2023-05-03T00:10:38;100217.69;;;14.75;59.39
33697;BME280;20031;43.416;23.232;2023-05-03T00:13:03;100220.91;;;14.63;59.35
33697;BME280;20031;43.416;23.232;2023-05-03T00:15:29;100212.13;;;14.56;59.94
33697;BME280;20031;43.416;23.232;2023-05-03T00:17:54;100213.53;;;14.52;59.57
33697;BME280;20031;43.416;23.232;2023-05-03T00:20:19;100222.44;;;14.43;60.00
33697;BME280;20031;43.416;23.232;2023-05-03T00:22:46;100231.38;;;14.34;60.51
33697;BME280;20031;43.416;23.232;2023-05-03T00:25:11;100231.06;;;14.29;60.59
33697;BME280;20031;43.416;23.232;2023-05-03T00:27:37;100231.00;;;14.23;60.53
33697;BME280;20031;43.416;23.232;2023-05-03T00:30:03;100233.66;;;14.15;60.83
33697;BME280;20031;43.416;23.232;2023-05-03T00:32:29;100223.41;;;14.05;60.92
33697;BME280;20031;43.416;23.232;2023-05-03T00:34:55;100227.91;;;13.97;60.73
33697;BME280;20031;43.416;23.232;2023-05-03T00:37:22;100232.38;;;13.88;60.58
33697;BME280;20031;43.416;23.232;2023-05-03T00:39:47;100232.44;;;13.80;60.20
33697;BME280;20031;43.416;23.232;2023-05-03T00:42:13;100224.94;;;13.77;60.74
33697;BME280;20031;43.416;23.232;2023-05-03T00:44:38;100228.34;;;13.78;60.43
33697;BME280;20031;43.416;23.232;2023-05-03T00:47:04;100228.03;;;13.81;60.20
33697;BME280;20031;43.416;23.232;2023-05-03T00:49:29;100230.81;;;13.79;59.58
33697;BME280;20031;43.416;23.232;2023-05-03T00:51:55;100226.84;;;13.83;59.25
33697;BME280;20031;43.416;23.232;2023-05-03T00:54:21;100235.53;;;13.84;58.59
33697;BME280;20031;43.416;23.232;2023-05-03T00:56:47;100227.94;;;13.89;58.43
33697;BME280;20031;43.416;23.232;2023-05-03T00:59:13;100228.25;;;13.94;57.74
33697;BME280;20031;43.416;23.232;2023-05-03T01:01:39;100236.88;;;14.02;57.65
33697;BME280;20031;43.416;23.232;2023-05-03T01:04:05;100230.25;;;14.14;57.80
33697;BME280;20031;43.416;23.232;2023-05-03T01:11:54;100236.03;;;14.24;57.81
33697;BME280;20031;43.416;23.232;2023-05-03T01:14:45;100200.09;;;14.18;58.40
33697;BME280;20031;43.416;23.232;2023-05-03T01:17:12;100148.69;;;14.17;55.58
33697;BME280;20031;43.416;23.232;2023-05-03T01:19:47;100125.81;;;14.11;54.86
33697;BME280;20031;43.416;23.232;2023-05-03T01:24:56;100254.53;;;14.08;54.59
33697;BME280;20031;43.416;23.232;2023-05-03T01:27:24;100288.41;;;14.10;55.34
33697;BME280;20031;43.416;23.232;2023-05-03T01:29:49;100260.63;;;14.01;55.63
33697;BME280;20031;43.416;23.232;2023-05-03T01:32:21;100243.31;;;13.92;55.86
33697;BME280;20031;43.416;23.232;2023-05-03T01:34:56;100270.50;;;13.91;55.73
33697;BME280;20031;43.416;23.232;2023-05-03T01:37:26;100265.53;;;13.96;55.46
33697;BME280;20031;43.416;23.232;2023-05-03T01:39:53;100265.72;;;13.94;55.09
33697;BME280;20031;43.416;23.232;2023-05-03T01:42:20;100271.31;;;13.91;55.43
33697;BME280;20031;43.416;23.232;2023-05-03T01:44:48;100268.22;;;13.88;55.28
33697;BME280;20031;43.416;23.232;2023-05-03T01:47:14;100251.25;;;13.84;55.48
33697;BME280;20031;43.416;23.232;2023-05-03T01:49:40;100244.53;;;13.81;55.34
33697;BME280;20031;43.416;23.232;2023-05-03T01:52:05;100247.16;;;13.81;55.79
33697;BME280;20031;43.416;23.232;2023-05-03T01:54:31;100253.69;;;13.85;55.91
33697;BME280;20031;43.416;23.232;2023-05-03T01:56:56;100259.53;;;13.87;55.08
33697;BME280;20031;43.416;23.232;2023-05-03T01:59:22;100262.53;;;13.84;55.41
33697;BME280;20031;43.416;23.232;2023-05-03T02:01:47;100260.25;;;13.81;55.52
33697;BME280;20031;43.416;23.232;2023-05-03T02:04:12;100259.63;;;13.79;55.92
33697;BME280;20031;43.416;23.232;2023-05-03T02:06:38;100254.69;;;13.76;56.30
33697;BME280;20031;43.416;23.232;2023-05-03T02:09:04;100253.91;;;13.76;56.44
33697;BME280;20031;43.416;23.232;2023-05-03T02:11:29;100261.41;;;13.79;57.11
33697;BME280;20031;43.416;23.232;2023-05-03T02:13:54;100263.41;;;13.77;57.12
33697;BME280;20031;43.416;23.232;2023-05-03T02:16:20;100262.91;;;13.74;57.28
33697;BME280;20031;43.416;23.232;2023-05-03T02:18:45;100271.09;;;13.71;56.93
33697;BME280;20031;43.416;23.232;2023-05-03T02:21:11;100267.50;;;13.72;56.83
33697;BME280;20031;43.416;23.232;2023-05-03T02:23:37;100277.34;;;13.70;56.86
33697;BME280;20031;43.416;23.232;2023-05-03T02:26:03;100272.13;;;13.70;57.17
33697;BME280;20031;43.416;23.232;2023-05-03T02:28:28;100280.94;;;13.69;57.17
33697;BME280;20031;43.416;23.232;2023-05-03T02:30:54;100276.88;;;13.66;57.81
33697;BME280;20031;43.416;23.232;2023-05-03T02:33:19;100281.13;;;13.67;57.61
33697;BME280;20031;43.416;23.232;2023-05-03T02:35:45;100285.53;;;13.67;57.97
33697;BME280;20031;43.416;23.232;2023-05-03T02:38:10;100306.47;;;13.67;57.91
33697;BME280;20031;43.416;23.232;2023-05-03T02:40:36;100312.34;;;13.69;58.28
33697;BME280;20031;43.416;23.232;2023-05-03T02:43:01;100299.28;;;13.69;58.21
33697;BME280;20031;43.416;23.232;2023-05-03T02:45:28;100295.00;;;13.68;58.40
33697;BME280;20031;43.416;23.232;2023-05-03T02:47:54;100284.88;;;13.65;58.39
33697;BME280;20031;43.416;23.232;2023-05-03T02:50:19;100277.56;;;13.60;58.62
33697;BME280;20031;43.416;23.232;2023-05-03T02:52:45;100272.19;;;13.54;59.11
33697;BME280;20031;43.416;23.232;2023-05-03T02:55:10;100260.59;;;13.48;59.24
33697;BME280;20031;43.416;23.232;2023-05-03T02:57:36;100265.19;;;13.46;59.36
33697;BME280;20031;43.416;23.232;2023-05-03T03:00:01;100269.09;;;13.50;59.68
33697;BME280;20031;43.416;23.232;2023-05-03T03:02:29;100267.97;;;13.53;59.37
33697;BME280;20031;43.416;23.232;2023-05-03T03:04:54;100260.91;;;13.53;59.66
33697;BME280;20031;43.416;23.232;2023-05-03T03:07:20;100269.91;;;13.51;59.75
33697;BME280;20031;43.416;23.232;2023-05-03T03:09:45;100274.88;;;13.46;59.43
33697;BME280;20031;43.416;23.232;2023-05-03T03:12:11;100282.38;;;13.41;59.89
33697;BME280;20031;43.416;23.232;2023-05-03T03:14:36;100289.25;;;13.42;60.05
33697;BME280;20031;43.416;23.232;2023-05-03T03:17:06;100299.38;;;13.45;59.90
33697;BME280;20031;43.416;23.232;2023-05-03T03:19:32;100299.03;;;13.48;60.25
33697;BME280;20031;43.416;23.232;2023-05-03T03:21:57;100304.28;;;13.48;60.18
33697;BME280;20031;43.416;23.232;2023-05-03T03:24:22;100306.59;;;13.43;60.35
33697;BME280;20031;43.416;23.232;2023-05-03T03:26:48;100318.06;;;13.34;60.20
33697;BME280;20031;43.416;23.232;2023-05-03T03:29:13;100329.69;;;13.31;60.65
33697;BME280;20031;43.416;23.232;2023-05-03T03:31:38;100332.50;;;13.30;60.76
33697;BME280;20031;43.416;23.232;2023-05-03T03:34:04;100332.66;;;13.28;60.96
33697;BME280;20031;43.416;23.232;2023-05-03T03:36:29;100335.41;;;13.27;61.24
33697;BME280;20031;43.416;23.232;2023-05-03T03:38:55;100342.97;;;13.22;61.05
33697;BME280;20031;43.416;23.232;2023-05-03T03:41:21;100343.47;;;13.18;61.78
33697;BME280;20031;43.416;23.232;2023-05-03T03:43:47;100350.34;;;13.19;61.65
33697;BME280;20031;43.416;23.232;2023-05-03T03:46:12;100354.09;;;13.16;61.23
33697;BME280;20031;43.416;23.232;2023-05-03T03:48:38;100363.72;;;13.16;61.80
33697;BME280;20031;43.416;23.232;2023-05-03T03:51:03;100359.97;;;13.18;61.56
33697;BME280;20031;43.416;23.232;2023-05-03T03:53:29;100359.63;;;13.21;61.76
33697;BME280;20031;43.416;23.232;2023-05-03T03:55:54;100358.03;;;13.20;61.68
33697;BME280;20031;43.416;23.232;2023-05-03T03:58:20;100370.59;;;13.25;61.40
33697;BME280;20031;43.416;23.232;2023-05-03T04:00:46;100374.66;;;13.27;61.40
33697;BME280;20031;43.416;23.232;2023-05-03T04:03:12;100379.56;;;13.30;61.63
33697;BME280;20031;43.416;23.232;2023-05-03T04:05:37;100381.19;;;13.31;61.26
33697;BME280;20031;43.416;23.232;2023-05-03T04:08:03;100388.53;;;13.35;61.49
33697;BME280;20031;43.416;23.232;2023-05-03T04:10:28;100385.44;;;13.40;61.48
33697;BME280;20031;43.416;23.232;2023-05-03T04:12:53;100390.16;;;13.44;61.40
33697;BME280;20031;43.416;23.232;2023-05-03T04:15:20;100405.97;;;13.51;61.38
33697;BME280;20031;43.416;23.232;2023-05-03T04:17:45;100413.16;;;13.57;61.34
33697;BME280;20031;43.416;23.232;2023-05-03T04:20:11;100404.47;;;13.64;60.94
33697;BME280;20031;43.416;23.232;2023-05-03T04:22:38;100397.75;;;13.70;60.96
33697;BME280;20031;43.416;23.232;2023-05-03T04:25:05;100383.66;;;13.71;60.81
33697;BME280;20031;43.416;23.232;2023-05-03T04:27:31;100394.13;;;13.71;60.99
33697;BME280;20031;43.416;23.232;2023-05-03T04:29:58;100388.09;;;13.70;60.76
33697;BME280;20031;43.416;23.232;2023-05-03T04:32:24;100383.19;;;13.67;60.98
33697;BME280;20031;43.416;23.232;2023-05-03T04:34:50;100388.97;;;13.55;61.55
33697;BME280;20031;43.416;23.232;2023-05-03T04:37:21;100398.81;;;13.45;61.75
33697;BME280;20031;43.416;23.232;2023-05-03T04:39:46;100401.94;;;13.40;62.04
33697;BME280;20031;43.416;23.232;2023-05-03T04:42:12;100406.03;;;13.35;62.37
33697;BME280;20031;43.416;23.232;2023-05-03T04:44:40;100410.28;;;13.28;63.19
33697;BME280;20031;43.416;23.232;2023-05-03T04:47:06;100410.78;;;13.31;63.10
33697;BME280;20031;43.416;23.232;2023-05-03T04:49:32;100415.19;;;13.39;63.39
33697;BME280;20031;43.416;23.232;2023-05-03T04:51:58;100422.69;;;13.42;63.04
33697;BME280;20031;43.416;23.232;2023-05-03T04:54:24;100434.31;;;13.47;62.95
33697;BME280;20031;43.416;23.232;2023-05-03T04:56:49;100429.38;;;13.52;62.89
33697;BME280;20031;43.416;23.232;2023-05-03T04:59:15;100432.44;;;13.64;62.71
33697;BME280;20031;43.416;23.232;2023-05-03T05:01:41;100434.41;;;13.70;62.53
33697;BME280;20031;43.416;23.232;2023-05-03T05:04:06;100441.75;;;13.74;62.20
33697;BME280;20031;43.416;23.232;2023-05-03T05:06:32;100438.28;;;13.81;61.75
33697;BME280;20031;43.416;23.232;2023-05-03T05:08:57;100439.56;;;13.85;61.99
33697;BME280;20031;43.416;23.232;2023-05-03T05:11:23;100439.25;;;13.88;61.54
33697;BME280;20031;43.416;23.232;2023-05-03T05:13:48;100442.03;;;13.87;61.59
33697;BME280;20031;43.416;23.232;2023-05-03T05:16:14;100451.50;;;13.88;61.50
33697;BME280;20031;43.416;23.232;2023-05-03T05:18:39;100453.03;;;13.75;61.15
33697;BME280;20031;43.416;23.232;2023-05-03T05:21:05;100463.84;;;13.72;61.01
33697;BME280;20031;43.416;23.232;2023-05-03T05:23:30;100475.59;;;13.76;61.32
33697;BME280;20031;43.416;23.232;2023-05-03T05:25:56;100477.53;;;13.81;61.35
33697;BME280;20031;43.416;23.232;2023-05-03T05:28:26;100480.47;;;13.86;61.29
33697;BME280;20031;43.416;23.232;2023-05-03T05:30:52;100493.84;;;13.99;61.75
33697;BME280;20031;43.416;23.232;2023-05-03T05:33:17;100496.13;;;14.10;60.83
33697;BME280;20031;43.416;23.232;2023-05-03T05:35:44;100484.00;;;14.09;60.32
33697;BME280;20031;43.416;23.232;2023-05-03T05:38:09;100492.34;;;14.05;60.26
33697;BME280;20031;43.416;23.232;2023-05-03T05:40:36;100488.78;;;14.06;60.12
33697;BME280;20031;43.416;23.232;2023-05-03T05:43:01;100482.41;;;14.08;59.89
33697;BME280;20031;43.416;23.232;2023-05-03T05:45:27;100478.47;;;14.12;59.66
33697;BME280;20031;43.416;23.232;2023-05-03T05:47:52;100481.19;;;14.19;60.07
33697;BME280;20031;43.416;23.232;2023-05-03T05:50:18;100482.94;;;14.26;59.68
33697;BME280;20031;43.416;23.232;2023-05-03T05:52:43;100480.94;;;14.36;59.91
33697;BME280;20031;43.416;23.232;2023-05-03T05:55:09;100483.94;;;14.55;59.75
33697;BME280;20031;43.416;23.232;2023-05-03T05:57:37;100485.66;;;14.71;59.04
33697;BME280;20031;43.416;23.232;2023-05-03T06:00:03;100493.44;;;14.78;58.67
33697;BME280;20031;43.416;23.232;2023-05-03T06:02:38;100498.19;;;14.83;58.20
33697;BME280;20031;43.416;23.232;2023-05-03T06:05:04;100497.59;;;14.95;57.83
33697;BME280;20031;43.416;23.232;2023-05-03T06:07:32;100493.59;;;15.07;57.36
33697;BME280;20031;43.416;23.232;2023-05-03T06:09:58;100496.25;;;14.99;56.84
33697;BME280;20031;43.416;23.232;2023-05-03T06:12:24;100502.91;;;14.87;56.95
33697;BME280;20031;43.416;23.232;2023-05-03T06:14:49;100493.63;;;14.77;57.96
33697;BME280;20031;43.416;23.232;2023-05-03T06:17:15;100484.78;;;14.78;58.30
33697;BME280;20031;43.416;23.232;2023-05-03T06:19:41;100497.66;;;14.87;58.74
33697;BME280;20031;43.416;23.232;2023-05-03T06:22:06;100496.97;;;14.93;58.79
33697;BME280;20031;43.416;23.232;2023-05-03T06:24:32;100492.56;;;15.08;58.88
33697;BME280;20031;43.416;23.232;2023-05-03T06:26:57;100489.94;;;15.08;58.75
33697;BME280;20031;43.416;23.232;2023-05-03T06:29:24;100493.41;;;15.09;58.92
33697;BME280;20031;43.416;23.232;2023-05-03T06:31:50;100490.06;;;15.15;58.92
33697;BME280;20031;43.416;23.232;2023-05-03T06:34:18;100488.22;;;15.23;59.49
33697;BME280;20031;43.416;23.232;2023-05-03T06:36:48;100492.84;;;15.21;58.74
33697;BME280;20031;43.416;23.232;2023-05-03T06:39:13;100493.66;;;15.22;58.65
33697;BME280;20031;43.416;23.232;2023-05-03T06:41:39;100503.38;;;15.13;58.06
33697;BME280;20031;43.416;23.232;2023-05-03T06:44:04;100494.91;;;15.03;57.93
33697;BME280;20031;43.416;23.232;2023-05-03T06:46:31;100505.38;;;15.11;58.50
33697;BME280;20031;43.416;23.232;2023-05-03T06:48:57;100506.16;;;15.12;58.64
33697;BME280;20031;43.416;23.232;2023-05-03T06:51:23;100499.41;;;15.17;58.59
33697;BME280;20031;43.416;23.232;2023-05-03T06:53:56;100497.75;;;15.16;58.41
33697;BME280;20031;43.416;23.232;2023-05-03T06:56:24;100502.16;;;15.24;58.85
33697;BME280;20031;43.416;23.232;2023-05-03T06:58:50;100498.38;;;15.40;58.64
33697;BME280;20031;43.416;23.232;2023-05-03T07:01:16;100498.22;;;15.42;57.91
33697;BME280;20031;43.416;23.232;2023-05-03T07:03:43;100498.41;;;15.55;57.84
33697;BME280;20031;43.416;23.232;2023-05-03T07:06:08;100494.91;;;15.62;57.85
33697;BME280;20031;43.416;23.232;2023-05-03T07:08:34;100497.53;;;15.77;58.17
33697;BME280;20031;43.416;23.232;2023-05-03T07:10:59;100497.63;;;15.83;57.90
33697;BME280;20031;43.416;23.232;2023-05-03T07:13:25;100497.44;;;15.84;57.40
33697;BME280;20031;43.416;23.232;2023-05-03T07:15:50;100496.09;;;15.88;56.49
33697;BME280;20031;43.416;23.232;2023-05-03T07:18:16;100492.00;;;16.15;56.22
33697;BME280;20031;43.416;23.232;2023-05-03T07:20:41;100492.69;;;16.52;54.51
33697;BME280;20031;43.416;23.232;2023-05-03T07:23:06;100496.41;;;16.57;53.32
33697;BME280;20031;43.416;23.232;2023-05-03T07:25:32;100490.06;;;16.73;53.00
33697;BME280;20031;43.416;23.232;2023-05-03T07:27:58;100500.06;;;16.63;52.06
33697;BME280;20031;43.416;23.232;2023-05-03T07:30:23;100490.06;;;16.73;52.34
33697;BME280;20031;43.416;23.232;2023-05-03T07:32:49;100482.53;;;16.84;52.13
33697;BME280;20031;43.416;23.232;2023-05-03T07:35:15;100487.44;;;16.93;51.47
33697;BME280;20031;43.416;23.232;2023-05-03T07:37:41;100485.47;;;16.95;51.73
33697;BME280;20031;43.416;23.232;2023-05-03T07:40:07;100488.44;;;16.92;51.72
33697;BME280;20031;43.416;23.232;2023-05-03T07:42:34;100478.75;;;16.93;51.46
33697;BME280;20031;43.416;23.232;2023-05-03T07:45:00;100484.38;;;16.69;51.74
33697;BME280;20031;43.416;23.232;2023-05-03T07:47:25;100475.41;;;16.64;52.42
33697;BME280;20031;43.416;23.232;2023-05-03T07:49:52;100480.28;;;16.67;52.40
33697;BME280;20031;43.416;23.232;2023-05-03T07:52:17;100476.97;;;16.58;52.31
33697;BME280;20031;43.416;23.232;2023-05-03T07:54:43;100471.75;;;16.44;52.48
33697;BME280;20031;43.416;23.232;2023-05-03T07:57:10;100465.72;;;16.29;52.95
33697;BME280;20031;43.416;23.232;2023-05-03T07:59:36;100461.53;;;16.20;53.50
33697;BME280;20031;43.416;23.232;2023-05-03T08:02:02;100479.22;;;16.12;53.84
33697;BME280;20031;43.416;23.232;2023-05-03T08:04:28;100474.13;;;16.10;54.27
33697;BME280;20031;43.416;23.232;2023-05-03T08:06:53;100474.50;;;16.07;54.41
33697;BME280;20031;43.416;23.232;2023-05-03T08:09:19;100494.16;;;16.11;55.29
33697;BME280;20031;43.416;23.232;2023-05-03T08:11:44;100497.59;;;16.12;56.41
33697;BME280;20031;43.416;23.232;2023-05-03T08:14:10;100497.34;;;16.21;56.90
33697;BME280;20031;43.416;23.232;2023-05-03T08:16:36;100502.34;;;16.16;57.00
33697;BME280;20031;43.416;23.232;2023-05-03T08:19:02;100501.69;;;16.14;57.18
33697;BME280;20031;43.416;23.232;2023-05-03T08:21:29;100513.84;;;16.15;57.79
33697;BME280;20031;43.416;23.232;2023-05-03T08:23:55;100516.56;;;16.07;57.72
33697;BME280;20031;43.416;23.232;2023-05-03T08:26:20;100515.56;;;15.94;57.60
33697;BME280;20031;43.416;23.232;2023-05-03T08:28:46;100521.63;;;15.94;57.93
33697;BME280;20031;43.416;23.232;2023-05-03T08:31:12;100521.56;;;16.02;57.46
33697;BME280;20031;43.416;23.232;2023-05-03T08:33:37;100521.81;;;16.07;57.55
33697;BME280;20031;43.416;23.232;2023-05-03T08:36:03;100536.06;;;16.27;57.72
33697;BME280;20031;43.416;23.232;2023-05-03T08:38:28;100526.53;;;16.40;56.89
33697;BME280;20031;43.416;23.232;2023-05-03T08:40:54;100525.19;;;16.44;55.79
33697;BME280;20031;43.416;23.232;2023-05-03T08:43:22;100532.88;;;16.46;54.69
33697;BME280;20031;43.416;23.232;2023-05-03T08:45:51;100526.41;;;16.48;54.88
33697;BME280;20031;43.416;23.232;2023-05-03T08:48:17;100524.44;;;16.50;55.42
33697;BME280;20031;43.416;23.232;2023-05-03T08:50:43;100531.66;;;16.48;55.60
33697;BME280;20031;43.416;23.232;2023-05-03T08:53:09;100534.81;;;16.23;55.56
33697;BME280;20031;43.416;23.232;2023-05-03T08:55:36;100520.38;;;16.05;56.31
33697;BME280;20031;43.416;23.232;2023-05-03T08:58:05;100513.19;;;15.99;57.61
33697;BME280;20031;43.416;23.232;2023-05-03T09:00:34;100522.47;;;15.95;57.61
33697;BME280;20031;43.416;23.232;2023-05-03T09:03:00;100515.13;;;16.05;58.10
33697;BME280;20031;43.416;23.232;2023-05-03T09:08:05;100521.00;;;16.35;57.96
33697;BME280;20031;43.416;23.232;2023-05-03T09:10:33;100526.94;;;16.23;55.95
33697;BME280;20031;43.416;23.232;2023-05-03T09:13:01;100521.31;;;16.26;55.83
33697;BME280;20031;43.416;23.232;2023-05-03T09:15:28;100502.31;;;16.45;56.34
33697;BME280;20031;43.416;23.232;2023-05-03T09:18:12;100501.47;;;16.59;56.06
33697;BME280;20031;43.416;23.232;2023-05-03T09:20:40;100501.28;;;16.60;54.24
33697;BME280;20031;43.416;23.232;2023-05-03T09:23:09;100508.91;;;16.55;54.46
33697;BME280;20031;43.416;23.232;2023-05-03T09:25:48;100506.34;;;16.62;53.43
33697;BME280;20031;43.416;23.232;2023-05-03T09:28:16;100516.72;;;16.84;53.39
33697;BME280;20031;43.416;23.232;2023-05-03T09:30:43;100528.63;;;17.01;53.47
33697;BME280;20031;43.416;23.232;2023-05-03T09:33:09;100520.09;;;16.99;52.56
33697;BME280;20031;43.416;23.232;2023-05-03T09:35:36;100528.72;;;17.14;51.87
33697;BME280;20031;43.416;23.232;2023-05-03T09:38:02;100517.91;;;17.44;51.50
33697;BME280;20031;43.416;23.232;2023-05-03T09:40:27;100529.19;;;17.92;50.96
33697;BME280;20031;43.416;23.232;2023-05-03T09:43:07;100525.13;;;18.24;48.79
33697;BME280;20031;43.416;23.232;2023-05-03T09:45:36;100517.31;;;18.43;48.43
33697;BME280;20031;43.416;23.232;2023-05-03T09:48:03;100513.34;;;18.20;47.90
33697;BME280;20031;43.416;23.232;2023-05-03T09:50:33;100515.38;;;18.18;48.36
33697;BME280;20031;43.416;23.232;2023-05-03T09:53:03;100517.56;;;18.14;47.58
33697;BME280;20031;43.416;23.232;2023-05-03T09:55:36;100513.78;;;18.23;48.50
33697;BME280;20031;43.416;23.232;2023-05-03T09:58:03;100500.47;;;18.44;47.69
33697;BME280;20031;43.416;23.232;2023-05-03T10:00:38;100506.44;;;18.72;47.56
33697;BME280;20031;43.416;23.232;2023-05-03T10:03:09;100494.94;;;18.98;47.24
33697;BME280;20031;43.416;23.232;2023-05-03T10:05:55;100495.34;;;18.95;46.60
33697;BME280;20031;43.416;23.232;2023-05-03T10:10:51;100483.19;;;19.14;47.59
33697;BME280;20031;43.416;23.232;2023-05-03T10:13:20;100479.44;;;19.86;45.21
33697;BME280;20031;43.416;23.232;2023-05-03T10:15:48;100465.72;;;20.27;43.80
33697;BME280;20031;43.416;23.232;2023-05-03T10:18:19;100466.09;;;20.68;43.08
33697;BME280;20031;43.416;23.232;2023-05-03T10:20:53;100464.44;;;20.80;42.16
33697;BME280;20031;43.416;23.232;2023-05-03T10:23:21;100461.13;;;21.39;41.44
33697;BME280;20031;43.416;23.232;2023-05-03T10:26:16;100442.78;;;21.98;40.90
33697;BME280;20031;43.416;23.232;2023-05-03T10:28:42;100443.81;;;22.32;40.17
33697;BME280;20031;43.416;23.232;2023-05-03T10:31:43;100436.53;;;22.57;38.50
33697;BME280;20031;43.416;23.232;2023-05-03T10:34:23;100436.38;;;22.05;38.44
33697;BME280;20031;43.416;23.232;2023-05-03T10:36:50;100427.16;;;21.90;38.82
33697;BME280;20031;43.416;23.232;2023-05-03T10:39:18;100429.69;;;22.03;39.08
33697;BME280;20031;43.416;23.232;2023-05-03T10:41:44;100429.69;;;22.03;40.31
33697;BME280;20031;43.416;23.232;2023-05-03T10:44:37;100441.28;;;22.19;39.53
33697;BME280;20031;43.416;23.232;2023-05-03T10:47:16;100447.41;;;22.38;39.24
33697;BME280;20031;43.416;23.232;2023-05-03T10:49:42;100436.41;;;22.16;38.60
33697;BME280;20031;43.416;23.232;2023-05-03T10:55:07;100434.16;;;22.49;38.56
33697;BME280;20031;43.416;23.232;2023-05-03T10:57:34;100441.88;;;22.21;38.78
33697;BME280;20031;43.416;23.232;2023-05-03T11:00:03;100446.03;;;21.82;38.84
33697;BME280;20031;43.416;23.232;2023-05-03T11:02:37;100442.03;;;21.91;39.74
33697;BME280;20031;43.416;23.232;2023-05-03T11:05:07;100442.56;;;22.17;39.17
33697;BME280;20031;43.416;23.232;2023-05-03T11:07:35;100447.06;;;21.99;39.30
33697;BME280;20031;43.416;23.232;2023-05-03T11:10:17;100433.19;;;22.61;38.67
33697;BME280;20031;43.416;23.232;2023-05-03T11:12:43;100429.91;;;22.89;38.14
33697;BME280;20031;43.416;23.232;2023-05-03T11:15:09;100427.78;;;23.20;38.32
33697;BME280;20031;43.416;23.232;2023-05-03T11:17:39;100426.50;;;23.22;37.77
33697;BME280;20031;43.416;23.232;2023-05-03T11:20:05;100426.25;;;23.01;37.69
33697;BME280;20031;43.416;23.232;2023-05-03T11:22:34;100423.97;;;23.16;37.76
33697;BME280;20031;43.416;23.232;2023-05-03T11:25:00;100416.91;;;23.21;37.40
33697;BME280;20031;43.416;23.232;2023-05-03T11:27:25;100418.19;;;23.08;37.50
33697;BME280;20031;43.416;23.232;2023-05-03T11:29:51;100414.59;;;23.02;37.68
33697;BME280;20031;43.416;23.232;2023-05-03T11:32:25;100408.19;;;22.92;38.59
33697;BME280;20031;43.416;23.232;2023-05-03T11:34:51;100415.69;;;22.83;38.31
33697;BME280;20031;43.416;23.232;2023-05-03T11:37:17;100407.56;;;22.38;38.38
33697;BME280;20031;43.416;23.232;2023-05-03T11:39:42;100410.34;;;22.31;39.43
33697;BME280;20031;43.416;23.232;2023-05-03T11:42:07;100408.84;;;22.17;39.08
33697;BME280;20031;43.416;23.232;2023-05-03T11:44:33;100412.34;;;22.00;39.82
33697;BME280;20031;43.416;23.232;2023-05-03T11:46:59;100407.88;;;21.65;40.29
33697;BME280;20031;43.416;23.232;2023-05-03T11:49:24;100397.09;;;21.78;41.27
33697;BME280;20031;43.416;23.232;2023-05-03T11:51:50;100393.78;;;22.00;39.99
33697;BME280;20031;43.416;23.232;2023-05-03T11:54:16;100387.28;;;22.14;40.29
33697;BME280;20031;43.416;23.232;2023-05-03T11:56:42;100391.16;;;22.29;39.93
33697;BME280;20031;43.416;23.232;2023-05-03T11:59:07;100390.34;;;22.58;39.84
33697;BME280;20031;43.416;23.232;2023-05-03T12:01:33;100394.09;;;22.91;39.29
33697;BME280;20031;43.416;23.232;2023-05-03T12:04:00;100403.22;;;22.84;38.97
33697;BME280;20031;43.416;23.232;2023-05-03T12:06:30;100392.19;;;23.21;39.17
33697;BME280;20031;43.416;23.232;2023-05-03T12:08:58;100383.47;;;23.59;38.89
33697;BME280;20031;43.416;23.232;2023-05-03T12:11:25;100384.88;;;23.62;37.25
33697;BME280;20031;43.416;23.232;2023-05-03T12:14:00;100386.97;;;23.49;38.59
33697;BME280;20031;43.416;23.232;2023-05-03T12:16:26;100376.50;;;24.20;37.37
33697;BME280;20031;43.416;23.232;2023-05-03T12:18:54;100372.66;;;24.88;36.71
33697;BME280;20031;43.416;23.232;2023-05-03T12:21:24;100363.53;;;25.33;36.01
33697;BME280;20031;43.416;23.232;2023-05-03T12:23:50;100354.75;;;24.84;34.91
33697;BME280;20031;43.416;23.232;2023-05-03T12:26:19;100353.66;;;24.36;36.49
33697;BME280;20031;43.416;23.232;2023-05-03T12:28:47;100364.00;;;24.21;36.69
33697;BME280;20031;43.416;23.232;2023-05-03T12:31:13;100353.69;;;23.97;37.25
33697;BME280;20031;43.416;23.232;2023-05-03T12:33:38;100347.78;;;23.67;37.90
33697;BME280;20031;43.416;23.232;2023-05-03T12:36:04;100338.63;;;23.63;37.79
33697;BME280;20031;43.416;23.232;2023-05-03T12:38:32;100340.59;;;23.56;38.08
33697;BME280;20031;43.416;23.232;2023-05-03T12:40:57;100329.03;;;23.51;38.36
33697;BME280;20031;43.416;23.232;2023-05-03T12:43:24;100325.72;;;23.32;38.09
33697;BME280;20031;43.416;23.232;2023-05-03T12:45:50;100330.09;;;23.38;38.51
33697;BME280;20031;43.416;23.232;2023-05-03T12:48:15;100323.59;;;23.57;38.66
33697;BME280;20031;43.416;23.232;2023-05-03T12:50:41;100309.00;;;23.71;38.39
33697;BME280;20031;43.416;23.232;2023-05-03T12:53:06;100304.19;;;23.45;38.30
33697;BME280;20031;43.416;23.232;2023-05-03T12:55:32;100293.81;;;23.32;38.49